createdAt,value
2022-11-12T00:00:33.896Z,6.47
2022-11-12T00:03:00.330Z,6.42
2022-11-12T00:05:26.740Z,6.36
2022-11-12T00:07:53.115Z,6.32
2022-11-12T00:10:19.589Z,6.25
2022-11-12T00:12:45.933Z,6.22
2022-11-12T00:15:12.514Z,6.16
2022-11-12T00:17:39.002Z,6.14
2022-11-12T00:20:06.621Z,6.10
2022-11-12T00:22:33.065Z,6.11
2022-11-12T00:24:59.478Z,6.11
2022-11-12T00:27:25.829Z,6.13
2022-11-12T00:29:52.225Z,6.12
2022-11-12T00:32:19.676Z,6.08
2022-11-12T00:34:46.065Z,6.09
2022-11-12T00:37:12.439Z,6.13
2022-11-12T00:39:38.834Z,6.12
2022-11-12T00:42:05.238Z,6.10
2022-11-12T00:44:31.648Z,6.09
2022-11-12T00:46:58.029Z,6.07
2022-11-12T00:49:24.385Z,5.99
2022-11-12T00:51:50.797Z,5.95
2022-11-12T00:54:17.329Z,5.92
2022-11-12T00:56:45.726Z,5.87
2022-11-12T00:59:12.855Z,5.88
2022-11-12T01:01:39.654Z,5.85
2022-11-12T01:04:06.287Z,5.80
2022-11-12T01:06:32.701Z,5.70
2022-11-12T01:08:59.160Z,5.68
2022-11-12T01:11:27.132Z,5.63
2022-11-12T01:13:55.679Z,5.60
2022-11-12T01:16:24.426Z,5.60
2022-11-12T01:18:55.167Z,5.59
2022-11-12T01:21:22.186Z,5.57
2022-11-12T01:23:48.664Z,5.56
2022-11-12T01:26:16.034Z,5.51
2022-11-12T01:28:42.597Z,5.50
2022-11-12T01:31:22.244Z,5.49
2022-11-12T01:33:49.836Z,5.47
2022-11-12T01:36:16.865Z,5.42
2022-11-12T01:38:43.723Z,5.41
2022-11-12T01:41:21.441Z,5.38
2022-11-12T01:43:48.112Z,5.33
2022-11-12T01:46:24.734Z,5.24
2022-11-12T01:48:59.449Z,5.21
2022-11-12T01:51:27.847Z,5.20
2022-11-12T01:53:55.639Z,5.20
2022-11-12T01:56:22.361Z,5.21
2022-11-12T01:58:49.442Z,5.21
2022-11-12T02:01:15.860Z,5.20
2022-11-12T02:03:42.239Z,5.24
2022-11-12T02:06:10.094Z,5.19
2022-11-12T02:08:36.444Z,5.12
2022-11-12T02:11:15.818Z,5.16
2022-11-12T02:13:57.811Z,5.15
2022-11-12T02:16:28.674Z,5.14
2022-11-12T02:18:55.156Z,5.11
2022-11-12T02:21:22.492Z,5.05
2022-11-12T02:23:57.910Z,5.09
2022-11-12T02:26:25.132Z,5.05
2022-11-12T02:28:51.491Z,5.03
2022-11-12T02:31:17.893Z,4.95
2022-11-12T02:33:44.243Z,4.85
2022-11-12T02:36:10.643Z,4.80
2022-11-12T02:38:37.001Z,4.81
2022-11-12T02:41:03.391Z,4.76
2022-11-12T02:43:29.835Z,4.78
2022-11-12T02:45:56.173Z,4.79
2022-11-12T02:48:22.536Z,4.77
2022-11-12T02:50:48.921Z,4.74
2022-11-12T02:53:15.292Z,4.71
2022-11-12T02:55:43.138Z,4.66
2022-11-12T02:58:09.519Z,4.62
2022-11-12T03:00:35.892Z,4.59
2022-11-12T03:03:02.550Z,4.56
2022-11-12T03:05:29.997Z,4.54
2022-11-12T03:07:58.113Z,4.54
2022-11-12T03:10:25.604Z,4.50
2022-11-12T03:12:52.926Z,4.46
2022-11-12T03:15:19.311Z,4.47
2022-11-12T03:17:45.728Z,4.49
2022-11-12T03:20:12.148Z,4.48
2022-11-12T03:22:38.735Z,4.51
2022-11-12T03:25:05.763Z,4.49
2022-11-12T03:27:32.112Z,4.45
2022-11-12T03:29:58.589Z,4.43
2022-11-12T03:32:24.995Z,4.39
2022-11-12T03:34:55.299Z,4.40
2022-11-12T03:37:22.063Z,4.36
2022-11-12T03:39:48.442Z,4.31
2022-11-12T03:42:14.782Z,4.25
2022-11-12T03:44:41.247Z,4.23
2022-11-12T03:47:07.612Z,4.23
2022-11-12T03:49:33.947Z,4.20
2022-11-12T03:52:00.384Z,4.14
2022-11-12T03:54:26.738Z,4.14
2022-11-12T03:56:53.087Z,4.12
2022-11-12T03:59:19.425Z,4.09
2022-11-12T04:01:45.821Z,4.06
2022-11-12T04:04:12.333Z,4.06
2022-11-12T04:06:57.289Z,4.03
2022-11-12T04:09:23.714Z,3.99
2022-11-12T04:11:50.059Z,3.96
2022-11-12T04:14:16.519Z,3.97
2022-11-12T04:17:01.314Z,3.95
2022-11-12T04:19:46.195Z,3.92
2022-11-12T04:22:12.577Z,3.86
2022-11-12T04:24:58.735Z,3.84
2022-11-12T04:27:28.961Z,3.81
2022-11-12T04:30:13.935Z,3.79
2022-11-12T04:33:01.260Z,3.77
2022-11-12T04:35:27.660Z,3.77
2022-11-12T04:37:54.283Z,3.72
2022-11-12T04:40:43.402Z,3.72
2022-11-12T04:43:30.568Z,3.73
2022-11-12T04:45:57.008Z,3.71
2022-11-12T04:48:23.926Z,3.71
2022-11-12T04:50:55.510Z,3.72
2022-11-12T04:53:22.157Z,3.69
2022-11-12T04:55:52.071Z,3.68
2022-11-12T04:58:18.483Z,3.62
2022-11-12T05:00:44.831Z,3.61
2022-11-12T05:03:11.191Z,3.58
2022-11-12T05:05:37.548Z,3.55
2022-11-12T05:08:03.941Z,3.53
2022-11-12T05:10:30.859Z,3.50
2022-11-12T05:12:57.202Z,3.53
2022-11-12T05:15:23.579Z,3.50
2022-11-12T05:17:49.984Z,3.50
2022-11-12T05:20:16.766Z,3.53
2022-11-12T05:22:50.453Z,3.49
2022-11-12T05:25:20.836Z,3.46
2022-11-12T05:27:47.187Z,3.42
2022-11-12T05:30:13.934Z,3.41
2022-11-12T05:32:40.292Z,3.42
2022-11-12T05:35:07.336Z,3.42
2022-11-12T05:37:33.766Z,3.37
2022-11-12T05:40:00.143Z,3.34
2022-11-12T05:42:26.633Z,3.31
2022-11-12T05:44:52.983Z,3.36
2022-11-12T05:47:19.333Z,3.41
2022-11-12T05:49:45.792Z,3.38
2022-11-12T05:52:12.152Z,3.31
2022-11-12T05:54:38.489Z,3.31
2022-11-12T05:57:04.848Z,3.28
2022-11-12T05:59:31.276Z,3.22
2022-11-12T06:01:57.641Z,3.20
2022-11-12T06:04:24.469Z,3.19
2022-11-12T06:06:50.955Z,3.11
2022-11-12T06:09:17.357Z,3.09
2022-11-12T06:11:43.790Z,3.10
2022-11-12T06:14:10.224Z,3.10
2022-11-12T06:16:36.567Z,3.13
2022-11-12T06:19:03.058Z,3.17
2022-11-12T06:21:29.409Z,3.16
2022-11-12T06:23:59.523Z,3.11
2022-11-12T06:26:28.208Z,3.10
2022-11-12T06:28:54.666Z,3.14
2022-11-12T06:31:21.176Z,3.17
2022-11-12T06:33:47.783Z,3.15
2022-11-12T06:36:15.178Z,3.16
2022-11-12T06:38:41.643Z,3.15
2022-11-12T06:41:09.193Z,3.16
2022-11-12T06:43:35.788Z,3.17
2022-11-12T06:46:02.864Z,3.17
2022-11-12T06:48:29.784Z,3.19
2022-11-12T06:50:57.142Z,3.22
2022-11-12T06:53:24.247Z,3.22
2022-11-12T06:55:50.654Z,3.25
2022-11-12T06:58:17.018Z,3.31
2022-11-12T07:00:43.501Z,3.37
2022-11-12T07:03:10.040Z,3.40
2022-11-12T07:05:39.136Z,3.46
2022-11-12T07:08:06.023Z,3.49
2022-11-12T07:10:32.393Z,3.51
2022-11-12T07:12:58.945Z,3.54
2022-11-12T07:15:25.363Z,3.59
2022-11-12T07:17:51.748Z,3.64
2022-11-12T07:20:18.122Z,3.61
2022-11-12T07:22:44.561Z,3.63
2022-11-12T07:25:10.914Z,3.67
2022-11-12T07:27:37.356Z,3.70
2022-11-12T07:30:13.037Z,3.70
2022-11-12T07:32:44.833Z,3.72
2022-11-12T07:35:13.647Z,3.76
2022-11-12T07:37:39.991Z,3.78
2022-11-12T07:40:06.916Z,3.79
2022-11-12T07:42:34.492Z,3.76
2022-11-12T07:45:00.910Z,3.75
2022-11-12T07:47:27.557Z,3.80
2022-11-12T07:49:54.007Z,3.86
2022-11-12T07:52:20.827Z,3.94
2022-11-12T07:54:47.194Z,3.98
2022-11-12T07:57:13.577Z,4.01
2022-11-12T07:59:45.668Z,4.03
2022-11-12T08:02:12.606Z,4.05
2022-11-12T08:04:38.960Z,4.04
2022-11-12T08:07:05.414Z,4.04
2022-11-12T08:09:32.001Z,4.04
2022-11-12T08:11:58.465Z,4.02
2022-11-12T08:14:24.840Z,4.08
2022-11-12T08:16:54.108Z,4.05
2022-11-12T08:19:20.539Z,4.08
2022-11-12T08:21:47.191Z,4.13
2022-11-12T08:24:13.601Z,4.17
2022-11-12T08:26:40.040Z,4.19
2022-11-12T08:29:08.643Z,4.26
2022-11-12T08:31:35.400Z,4.31
2022-11-12T08:34:11.926Z,4.33
2022-11-12T08:36:39.185Z,4.33
2022-11-12T08:39:05.665Z,4.36
2022-11-12T08:41:32.496Z,4.36
2022-11-12T08:44:01.842Z,4.38
2022-11-12T08:46:30.601Z,4.40
2022-11-12T08:48:56.956Z,4.44
2022-11-12T08:51:23.348Z,4.53
2022-11-12T08:53:49.716Z,4.65
2022-11-12T08:56:16.100Z,4.77
2022-11-12T08:58:42.489Z,4.86
2022-11-12T09:01:09.009Z,4.97
2022-11-12T09:03:35.379Z,5.10
2022-11-12T09:06:05.212Z,5.25
2022-11-12T09:08:32.996Z,5.40
2022-11-12T09:10:59.389Z,5.52
2022-11-12T09:13:25.810Z,5.66
2022-11-12T09:15:59.233Z,5.79
2022-11-12T09:18:26.034Z,5.95
2022-11-12T09:20:52.631Z,6.07
2022-11-12T09:23:18.997Z,6.17
2022-11-12T09:25:45.368Z,6.29
2022-11-12T09:28:15.836Z,6.39
2022-11-12T09:30:47.064Z,6.50
2022-11-12T09:33:14.536Z,6.58
2022-11-12T09:35:41.066Z,6.69
2022-11-12T09:38:07.430Z,6.79
2022-11-12T09:40:40.041Z,6.91
2022-11-12T09:43:35.797Z,7.02
2022-11-12T09:49:02.773Z,7.26
2022-11-12T09:51:34.144Z,7.35
2022-11-12T09:54:33.347Z,7.44
2022-11-12T09:56:59.730Z,7.54
2022-11-12T09:59:30.707Z,7.64
2022-11-12T10:02:05.157Z,7.73
2022-11-12T10:04:55.985Z,7.80
2022-11-12T10:07:34.464Z,7.90
2022-11-12T10:10:30.085Z,7.99
2022-11-12T10:13:21.025Z,8.13
2022-11-12T10:16:28.850Z,8.12
2022-11-12T10:19:17.822Z,8.23
2022-11-12T10:22:06.054Z,8.34
2022-11-12T10:24:35.256Z,8.42
2022-11-12T10:27:10.558Z,8.49
2022-11-12T10:29:41.020Z,8.54
2022-11-12T10:32:10.475Z,8.57
2022-11-12T10:34:36.835Z,8.58
2022-11-12T10:37:27.343Z,8.53
2022-11-12T10:39:53.738Z,8.58
2022-11-12T10:42:21.368Z,8.66
2022-11-12T10:44:48.024Z,8.76
2022-11-12T10:47:33.787Z,8.84
2022-11-12T10:50:06.318Z,8.90
2022-11-12T10:52:32.756Z,8.96
2022-11-12T10:55:17.875Z,9.06
2022-11-12T10:57:44.405Z,9.15
2022-11-12T11:00:14.108Z,9.26
2022-11-12T11:02:51.738Z,9.33
2022-11-12T11:05:38.130Z,9.38
2022-11-12T11:08:05.239Z,9.41
2022-11-12T11:10:33.715Z,9.52
2022-11-12T11:13:14.556Z,9.57
2022-11-12T11:15:40.933Z,9.66
2022-11-12T11:18:10.846Z,9.76
2022-11-12T11:20:45.186Z,9.81
2022-11-12T11:23:46.042Z,9.88
2022-11-12T11:26:38.979Z,9.98
2022-11-12T11:29:22.945Z,10.10
2022-11-12T11:31:55.578Z,10.22
2022-11-12T11:34:40.257Z,10.31
2022-11-12T11:37:26.862Z,10.42
2022-11-12T11:40:10.730Z,10.52
2022-11-12T11:42:43.272Z,10.67
2022-11-12T11:45:13.268Z,10.76
2022-11-12T11:48:02.264Z,10.80
2022-11-12T11:50:33.729Z,10.86
2022-11-12T11:53:13.044Z,10.99
2022-11-12T11:55:58.142Z,11.05
2022-11-12T11:58:36.704Z,11.12
2022-11-12T12:01:25.734Z,11.23
2022-11-12T12:03:55.195Z,11.35
2022-11-12T12:06:23.345Z,11.46
2022-11-12T12:09:11.939Z,11.62
2022-11-12T12:12:12.069Z,11.78
2022-11-12T12:15:07.628Z,11.84
2022-11-12T12:17:40.655Z,11.88
2022-11-12T12:20:20.134Z,11.96
2022-11-12T12:23:20.524Z,12.02
2022-11-12T12:25:48.180Z,12.16
2022-11-12T12:28:38.923Z,12.35
2022-11-12T12:31:12.114Z,12.51
2022-11-12T12:33:42.636Z,12.62
2022-11-12T12:36:14.536Z,12.73
2022-11-12T12:38:54.868Z,12.81
2022-11-12T12:41:29.753Z,12.90
2022-11-12T12:44:03.319Z,12.97
2022-11-12T12:46:31.215Z,12.98
2022-11-12T12:48:57.875Z,12.94
2022-11-12T12:51:24.264Z,13.01
2022-11-12T12:53:50.646Z,13.04
2022-11-12T12:56:23.127Z,13.05
2022-11-12T12:58:50.057Z,13.00
2022-11-12T13:01:22.775Z,13.01
2022-11-12T13:03:54.494Z,13.03
2022-11-12T13:06:23.936Z,12.95
2022-11-12T13:09:01.641Z,12.91
2022-11-12T13:12:00.116Z,12.80
2022-11-12T13:14:35.404Z,12.71
2022-11-12T13:17:10.794Z,12.76
2022-11-12T13:19:44.331Z,12.74
2022-11-12T13:22:17.000Z,12.64
2022-11-12T13:25:08.409Z,12.59
2022-11-12T13:27:44.220Z,12.57
2022-11-12T13:30:30.878Z,12.38
2022-11-12T13:32:57.976Z,12.18
2022-11-12T13:35:24.400Z,12.14
2022-11-12T13:38:02.949Z,12.13
2022-11-12T13:40:29.315Z,12.05
2022-11-12T13:43:03.843Z,11.89
2022-11-12T13:45:30.271Z,11.76
2022-11-12T13:47:59.552Z,11.64
2022-11-12T13:50:25.970Z,11.56
2022-11-12T13:52:52.360Z,11.52
2022-11-12T13:55:20.089Z,11.40
2022-11-12T13:57:53.476Z,11.31
2022-11-12T14:00:27.660Z,11.34
2022-11-12T14:03:00.732Z,11.27
2022-11-12T14:05:29.307Z,11.22
2022-11-12T14:08:08.641Z,11.12
2022-11-12T14:10:42.158Z,10.99
2022-11-12T14:13:49.003Z,10.91
2022-11-12T14:16:51.127Z,10.83
2022-11-12T14:19:25.739Z,10.79
2022-11-12T14:22:18.795Z,10.70
2022-11-12T14:24:46.157Z,10.62
2022-11-12T14:27:28.766Z,10.58
2022-11-12T14:30:29.571Z,10.59
2022-11-12T14:33:00.508Z,10.50
2022-11-12T14:35:33.239Z,10.38
2022-11-12T14:38:03.192Z,10.30
2022-11-12T14:40:31.884Z,10.20
2022-11-12T14:42:58.341Z,10.14
2022-11-12T14:45:24.814Z,10.12
2022-11-12T14:47:52.092Z,10.08
2022-11-12T14:50:22.588Z,10.04
2022-11-12T14:52:49.842Z,9.96
2022-11-12T14:55:18.676Z,9.87
2022-11-12T14:57:45.168Z,9.85
2022-11-12T15:00:35.786Z,9.82
2022-11-12T15:03:05.330Z,9.78
2022-11-12T15:05:31.892Z,9.74
2022-11-12T15:08:25.953Z,9.69
2022-11-12T15:10:52.317Z,9.61
2022-11-12T15:13:24.351Z,9.50
2022-11-12T15:16:07.535Z,9.39
2022-11-12T15:18:34.253Z,9.29
2022-11-12T15:21:06.581Z,9.20
2022-11-12T15:23:32.940Z,9.09
2022-11-12T15:26:00.242Z,8.98
2022-11-12T15:28:26.679Z,8.85
2022-11-12T15:31:15.899Z,8.70
2022-11-12T15:33:42.252Z,8.58
2022-11-12T15:36:19.112Z,8.50
2022-11-12T15:38:49.867Z,8.42
2022-11-12T15:41:25.155Z,8.32
2022-11-12T15:43:54.591Z,8.22
2022-11-12T15:46:20.963Z,8.20
2022-11-12T15:48:54.455Z,8.18
2022-11-12T15:51:22.406Z,8.12
2022-11-12T15:53:48.833Z,8.04
2022-11-12T15:56:17.275Z,7.97
2022-11-12T15:58:43.665Z,7.90
2022-11-12T16:01:10.756Z,7.82
2022-11-12T16:03:37.153Z,7.71
2022-11-12T16:06:08.613Z,7.65
2022-11-12T16:08:35.782Z,7.58
2022-11-12T16:11:02.125Z,7.53
2022-11-12T16:13:31.014Z,7.49
2022-11-12T16:15:57.517Z,7.41
2022-11-12T16:18:23.923Z,7.33
2022-11-12T16:20:50.382Z,7.28
2022-11-12T16:23:16.766Z,7.23
2022-11-12T16:25:43.350Z,7.19
2022-11-12T16:28:13.056Z,7.13
2022-11-12T16:30:39.433Z,7.07
2022-11-12T16:33:05.793Z,7.03
2022-11-12T16:35:33.424Z,6.97
2022-11-12T16:37:59.809Z,6.95
2022-11-12T16:40:28.213Z,6.92
2022-11-12T16:42:54.630Z,6.84
2022-11-12T16:45:25.242Z,6.78
2022-11-12T16:47:55.770Z,6.77
2022-11-12T16:50:23.740Z,6.74
2022-11-12T16:52:50.159Z,6.69
2022-11-12T16:55:16.704Z,6.61
2022-11-12T16:57:43.168Z,6.50
2022-11-12T17:00:14.250Z,6.51
2022-11-12T17:02:46.098Z,6.47
2022-11-12T17:05:19.792Z,6.44
2022-11-12T17:07:46.815Z,6.35
2022-11-12T17:10:13.246Z,6.28
2022-11-12T17:12:39.630Z,6.30
2022-11-12T17:15:06.658Z,6.28
2022-11-12T17:17:33.064Z,6.26
2022-11-12T17:19:59.509Z,6.13
2022-11-12T17:22:26.383Z,6.11
2022-11-12T17:24:52.729Z,6.10
2022-11-12T17:27:19.116Z,6.11
2022-11-12T17:29:45.469Z,6.08
2022-11-12T17:32:11.845Z,6.00
2022-11-12T17:34:38.202Z,5.89
2022-11-12T17:37:04.576Z,5.91
2022-11-12T17:39:30.956Z,5.87
2022-11-12T17:41:57.374Z,5.85
2022-11-12T17:44:23.742Z,5.78
2022-11-12T17:46:50.439Z,5.74
2022-11-12T17:49:16.939Z,5.69
2022-11-12T17:51:43.313Z,5.68
2022-11-12T17:54:09.804Z,5.65
2022-11-12T17:56:37.227Z,5.64
2022-11-12T17:59:03.898Z,5.61
2022-11-12T18:01:32.385Z,5.59
2022-11-12T18:03:58.825Z,5.56
2022-11-12T18:06:26.072Z,5.57
2022-11-12T18:08:59.666Z,5.55
2022-11-12T18:11:26.995Z,5.54
2022-11-12T18:13:53.588Z,5.55
2022-11-12T18:16:25.098Z,5.55
2022-11-12T18:18:53.871Z,5.54
2022-11-12T18:21:20.268Z,5.50
2022-11-12T18:23:46.642Z,5.48
2022-11-12T18:26:18.043Z,5.39
2022-11-12T18:28:45.240Z,5.33
2022-11-12T18:31:12.117Z,5.32
2022-11-12T18:33:38.663Z,5.32
2022-11-12T18:36:12.111Z,5.34
2022-11-12T18:38:38.520Z,5.35
2022-11-12T18:41:09.483Z,5.30
2022-11-12T18:43:36.209Z,5.19
2022-11-12T18:46:02.714Z,5.24
2022-11-12T18:48:29.880Z,5.22
2022-11-12T18:51:00.020Z,5.17
2022-11-12T18:53:29.921Z,5.15
2022-11-12T18:55:59.894Z,5.14
2022-11-12T18:58:31.966Z,5.06
2022-11-12T19:01:02.608Z,4.98
2022-11-12T19:03:29.277Z,4.98
2022-11-12T19:05:59.420Z,4.99
2022-11-12T19:08:26.478Z,5.03
2022-11-12T19:11:02.644Z,5.04
2022-11-12T19:13:29.538Z,5.02
2022-11-12T19:15:56.322Z,5.00
2022-11-12T19:18:22.673Z,4.91
2022-11-12T19:20:49.117Z,4.89
2022-11-12T19:23:15.550Z,4.87
2022-11-12T19:25:41.937Z,4.85
2022-11-12T19:28:08.290Z,4.80
2022-11-12T19:30:34.678Z,4.77
2022-11-12T19:33:01.030Z,4.79
2022-11-12T19:35:27.479Z,4.79
2022-11-12T19:37:53.829Z,4.78
2022-11-12T19:40:20.224Z,4.68
2022-11-12T19:42:47.940Z,4.62
2022-11-12T19:45:14.444Z,4.65
2022-11-12T19:47:40.797Z,4.65
2022-11-12T19:50:07.747Z,4.65
2022-11-12T19:52:34.136Z,4.58
2022-11-12T19:55:00.964Z,4.56
2022-11-12T19:57:28.975Z,4.59
2022-11-12T19:59:55.324Z,4.61
2022-11-12T20:02:21.736Z,4.59
2022-11-12T20:04:48.077Z,4.54
2022-11-12T20:07:14.527Z,4.50
2022-11-12T20:09:40.995Z,4.52
2022-11-12T20:12:07.721Z,4.51
2022-11-12T20:14:34.114Z,4.58
2022-11-12T20:17:00.510Z,4.58
2022-11-12T20:19:27.680Z,4.56
2022-11-12T20:21:54.046Z,4.58
2022-11-12T20:24:20.464Z,4.54
2022-11-12T20:26:48.575Z,4.51
2022-11-12T20:29:17.325Z,4.51
2022-11-12T20:31:43.791Z,4.52
2022-11-12T20:34:16.238Z,4.55
2022-11-12T20:36:42.640Z,4.57
2022-11-12T20:39:09.077Z,4.56
2022-11-12T20:41:35.452Z,4.55
2022-11-12T20:44:04.988Z,4.46
2022-11-12T20:46:33.735Z,4.52
2022-11-12T20:49:00.124Z,4.52
2022-11-12T20:51:32.211Z,4.51
2022-11-12T20:54:01.089Z,4.51
2022-11-12T20:56:33.358Z,4.50
2022-11-12T20:59:02.693Z,4.51
2022-11-12T21:01:29.574Z,4.53
2022-11-12T21:03:56.996Z,4.52
2022-11-12T21:06:25.107Z,4.51
2022-11-12T21:08:51.571Z,4.49
2022-11-12T21:11:20.149Z,4.40
2022-11-12T21:13:46.580Z,4.31
2022-11-12T21:16:15.921Z,4.38
2022-11-12T21:18:42.441Z,4.42
2022-11-12T21:21:13.363Z,4.45
2022-11-12T21:23:43.407Z,4.41
2022-11-12T21:26:09.765Z,4.39
2022-11-12T21:28:38.964Z,4.37
2022-11-12T21:31:09.306Z,4.35
2022-11-12T21:33:36.711Z,4.28
2022-11-12T21:36:05.353Z,4.29
2022-11-12T21:38:31.864Z,4.28
2022-11-12T21:41:22.327Z,4.27
2022-11-12T21:43:48.738Z,4.25
2022-11-12T21:46:19.994Z,4.25
2022-11-12T21:48:48.998Z,4.20
2022-11-12T21:51:18.883Z,4.15
2022-11-12T21:53:45.273Z,4.18
2022-11-12T21:56:13.422Z,4.14
2022-11-12T21:58:39.878Z,4.13
2022-11-12T22:01:10.115Z,4.13
2022-11-12T22:03:36.594Z,4.13
2022-11-12T22:06:03.286Z,4.16
2022-11-12T22:08:30.198Z,4.16
2022-11-12T22:11:01.888Z,4.22
2022-11-12T22:13:28.284Z,4.28
2022-11-12T22:15:57.323Z,4.39
2022-11-12T22:18:26.901Z,4.39
2022-11-12T22:21:15.981Z,4.43
2022-11-12T22:23:42.359Z,4.53
2022-11-12T22:26:13.989Z,4.59
2022-11-12T22:28:40.534Z,4.66
2022-11-12T22:31:09.391Z,4.71
2022-11-12T22:33:38.702Z,4.72
2022-11-12T22:36:12.308Z,4.77
2022-11-12T22:38:43.382Z,4.78
2022-11-12T22:41:17.761Z,4.82
2022-11-12T22:43:47.138Z,4.83
2022-11-12T22:46:15.221Z,4.87
2022-11-12T22:48:45.926Z,4.90
2022-11-12T22:51:19.543Z,4.89
2022-11-12T22:53:46.122Z,4.88
2022-11-12T22:56:14.993Z,4.91
2022-11-12T22:58:42.711Z,4.95
2022-11-12T23:01:27.334Z,5.01
2022-11-12T23:04:00.888Z,5.02
2022-11-12T23:06:30.544Z,5.02
2022-11-12T23:08:58.986Z,5.10
2022-11-12T23:11:26.152Z,5.17
2022-11-12T23:13:53.070Z,5.21
2022-11-12T23:16:21.693Z,5.24
2022-11-12T23:18:48.147Z,5.26
2022-11-12T23:21:19.186Z,5.26
2022-11-12T23:23:45.620Z,5.25
2022-11-12T23:26:14.288Z,5.23
2022-11-12T23:28:40.685Z,5.22
2022-11-12T23:31:11.220Z,5.21
2022-11-12T23:33:37.779Z,5.17
2022-11-12T23:36:07.896Z,5.13
2022-11-12T23:38:34.360Z,5.09
2022-11-12T23:41:00.770Z,5.07
2022-11-12T23:43:27.157Z,5.05
2022-11-12T23:45:53.747Z,5.03
2022-11-12T23:48:20.186Z,4.97
2022-11-12T23:50:47.145Z,4.95
2022-11-12T23:53:13.613Z,4.93
2022-11-12T23:55:43.420Z,4.92
2022-11-12T23:58:09.985Z,4.90
